Time;durP1;ratioP1;P1;durP2;ratioP2;P2;SDS_P1;SDS_P2;PMS_P1;PMS_P2;Temp;Humidity;BMP_temperature;BMP_pressure;BME280_temperature;BME280_humidity;BME280_pressure;Samples;Min_cycle;Max_cycle;Signal;HPM_P1;HPM_P2
2023/10/10 00:00:35;;;;;;;;;;;11.70;99.90;;;10.79;100.00;98260.38;4998905;28;19972;-71
2023/10/10 00:03:05;;;;;;;;;;;11.70;99.90;;;10.79;100.00;98268.16;5000937;28;20479;-71
2023/10/10 00:05:36;;;;;;;;;;;11.60;99.90;;;10.70;100.00;98273.63;4999819;28;19926;-71
2023/10/10 00:08:05;;;;;;;;;;;11.40;99.90;;;10.70;100.00;98268.41;5000596;28;19977;-71
2023/10/10 00:10:34;;;;;;;;;;;11.40;99.90;;;10.70;100.00;98274.50;4999453;28;19936;-71
2023/10/10 00:13:03;;;;;;;;;;;11.30;99.90;;;10.65;100.00;98268.56;5013973;28;19961;-71
2023/10/10 00:15:38;;;;;;;;;;;11.30;99.90;;;10.66;100.00;98272.88;4996712;28;20327;-71
2023/10/10 00:18:07;;;;;;;;;;;11.20;99.90;;;10.59;100.00;98272.22;4996741;28;20029;-70
2023/10/10 00:20:44;;;;;;;;;;;11.20;99.90;;;10.57;100.00;98267.97;4999092;28;19933;-71
2023/10/10 00:23:12;;;;;;;;;;;11.20;99.90;;;10.51;100.00;98257.78;5010233;28;19929;-71
2023/10/10 00:25:44;;;;;;;;;;;11.20;99.90;;;10.52;100.00;98256.91;4998449;28;19925;-71
2023/10/10 00:28:17;;;;;;;;;;;11.20;99.90;;;10.43;100.00;98253.69;4999762;28;19925;-71
2023/10/10 00:30:45;;;;;;;;;;;11.20;99.90;;;10.43;100.00;98240.72;4999263;28;19980;-71
2023/10/10 00:33:16;;;;;;;;;;;11.10;99.90;;;10.43;100.00;98242.47;4998826;28;20029;-71
2023/10/10 00:35:44;;;;;;;;;;;11.10;99.90;;;10.39;100.00;98238.25;5012504;28;19980;-71
2023/10/10 00:38:17;;;;;;;;;;;11.10;99.90;;;10.36;100.00;98235.75;5006633;28;20091;-71
2023/10/10 00:40:47;;;;;;;;;;;11.00;99.90;;;10.26;100.00;98233.44;4998342;28;20365;-71
2023/10/10 00:43:18;;;;;;;;;;;11.10;99.90;;;10.20;100.00;98233.59;4997441;28;19933;-71
2023/10/10 00:45:52;;;;;;;;;;;11.00;99.90;;;10.16;100.00;98226.81;5015716;28;19984;-71
2023/10/10 00:48:23;;;;;;;;;;;11.00;99.90;;;10.21;100.00;98221.47;4998201;28;21354;-71
2023/10/10 00:51:05;;;;;;;;;;;11.10;99.90;;;10.27;100.00;98218.69;5000040;28;19965;-71
2023/10/10 00:53:36;;;;;;;;;;;11.20;99.90;;;10.21;100.00;98208.50;5000744;28;20457;-71
2023/10/10 00:56:06;;;;;;;;;;;11.10;99.90;;;10.21;100.00;98213.69;5000009;28;19951;-71
2023/10/10 00:58:36;;;;;;;;;;;11.10;99.90;;;10.17;100.00;98205.16;5001489;28;19937;-72
2023/10/10 01:01:14;;;;;;;;;;;11.00;99.90;;;10.17;100.00;98207.78;5002384;28;19925;-71
2023/10/10 01:03:46;;;;;;;;;;;11.00;99.90;;;10.15;100.00;98206.09;5001694;28;19975;-71
2023/10/10 01:06:20;;;;;;;;;;;10.90;99.90;;;10.09;100.00;98203.69;5003059;28;19929;-71
2023/10/10 01:08:53;;;;;;;;;;;10.90;99.90;;;10.10;100.00;98198.44;5003512;28;19933;-71
2023/10/10 01:11:20;;;;;;;;;;;10.80;99.90;;;10.12;100.00;98199.25;4983805;28;20028;-70
2023/10/10 01:13:47;;;;;;;;;;;10.70;99.90;;;10.03;100.00;98195.22;5000317;28;20381;-70
2023/10/10 01:16:14;;;;;;;;;;;10.70;99.90;;;10.00;100.00;98197.03;5016577;28;19936;-71
2023/10/10 01:19:17;;;;;;;;;;;10.70;99.90;;;9.96;100.00;98191.09;5005787;28;20024;-71
2023/10/10 01:21:50;;;;;;;;;;;10.70;99.90;;;9.91;100.00;98184.34;5001626;28;19929;-71
2023/10/10 01:24:17;;;;;;;;;;;10.60;99.90;;;9.96;100.00;98187.66;4999227;28;19960;-71
2023/10/10 01:26:45;;;;;;;;;;;10.60;99.90;;;9.88;100.00;98184.47;5004088;28;19936;-71
2023/10/10 01:29:28;;;;;;;;;;;10.60;99.90;;;9.87;100.00;98180.16;5001890;28;19933;-71
2023/10/10 01:31:58;;;;;;;;;;;10.60;99.90;;;9.90;100.00;98180.94;5003817;28;20424;-71
2023/10/10 01:34:33;;;;;;;;;;;10.70;99.90;;;9.86;100.00;98171.53;4988168;28;19934;-71
2023/10/10 01:37:02;;;;;;;;;;;10.70;99.90;;;9.81;100.00;98169.09;5003343;28;19930;-71
2023/10/10 01:39:47;;;;;;;;;;;10.80;99.90;;;9.92;100.00;98160.09;5001201;28;19926;-71
2023/10/10 01:42:16;;;;;;;;;;;10.70;99.90;;;9.90;100.00;98154.13;4998527;28;19965;-71
2023/10/10 01:44:43;;;;;;;;;;;10.60;99.90;;;9.94;100.00;98153.13;5001536;28;19929;-71
2023/10/10 01:47:19;;;;;;;;;;;10.60;99.90;;;9.94;100.00;98153.97;5001073;28;19933;-71
2023/10/10 01:49:47;;;;;;;;;;;10.60;99.90;;;9.90;100.00;98157.59;5018186;28;19961;-71
2023/10/10 01:52:17;;;;;;;;;;;10.50;99.90;;;9.91;100.00;98158.44;5014639;28;19937;-71
2023/10/10 01:54:46;;;;;;;;;;;10.50;99.90;;;9.84;100.00;98156.00;5002221;28;19952;-71
2023/10/10 01:57:21;;;;;;;;;;;10.50;99.90;;;9.76;100.00;98154.53;4999854;28;19983;-71
2023/10/10 01:59:51;;;;;;;;;;;10.50;99.90;;;9.71;100.00;98146.06;5002253;28;20024;-71
2023/10/10 02:02:23;;;;;;;;;;;10.50;99.90;;;9.78;100.00;98150.16;5001612;28;19929;-71
2023/10/10 02:04:57;;;;;;;;;;;10.60;99.90;;;9.77;100.00;98144.13;5000940;28;20450;-71
2023/10/10 02:07:31;;;;;;;;;;;10.60;99.90;;;9.81;100.00;98150.09;5000312;28;20300;-71
2023/10/10 02:10:26;;;;;;;;;;;10.70;99.90;;;9.88;100.00;98146.41;5015788;28;19938;-71
2023/10/10 02:12:47;;;;;;;;;;;10.80;99.90;;;9.92;100.00;98152.34;5000251;28;20446;-71
2023/10/10 02:15:18;;;;;;;;;;;10.90;99.90;;;9.99;100.00;98154.72;5002340;28;19937;-70
2023/10/10 02:17:51;;;;;;;;;;;10.90;99.90;;;9.93;100.00;98151.44;5001302;28;20018;-71
2023/10/10 02:22:53;;;;;;;;;;;10.90;99.90;;;9.88;100.00;98154.19;4998324;28;19961;-72
2023/10/10 02:27:55;;;;;;;;;;;10.70;99.90;;;9.63;100.00;98144.56;5001173;28;19984;-71
2023/10/10 02:30:36;;;;;;;;;;;10.70;99.90;;;9.72;100.00;98146.03;5001064;28;19993;-71
2023/10/10 02:35:55;;;;;;;;;;;10.50;99.90;;;9.66;100.00;98140.19;4999961;28;19965;-70
2023/10/10 02:38:39;;;;;;;;;;;10.50;99.90;;;9.61;100.00;98143.75;4983948;28;20024;-71
2023/10/10 02:46:38;;;;;;;;;;;10.50;99.90;;;9.50;100.00;98135.44;5002457;28;19937;-71
2023/10/10 02:49:12;;;;;;;;;;;10.40;99.90;;;9.52;100.00;98143.16;4998658;28;20012;-71
2023/10/10 02:51:42;;;;;;;;;;;10.40;99.90;;;9.54;100.00;98138.81;5014956;28;19932;-71
2023/10/10 02:56:58;;;;;;;;;;;10.50;99.90;;;9.73;100.00;98145.13;5003002;28;19933;-71
2023/10/10 02:59:31;;;;;;;;;;;10.50;99.90;;;9.72;100.00;98145.19;5016939;28;20040;-71
2023/10/10 03:01:59;;;;;;;;;;;10.60;99.90;;;9.66;100.00;98145.34;5002043;28;19925;-71
2023/10/10 03:07:29;;;;;;;;;;;10.60;99.90;;;9.61;100.00;98150.69;4941931;29;20453;-70
2023/10/10 03:12:49;;;;;;;;;;;10.60;99.90;;;9.56;100.00;98157.75;5001565;28;19930;-71
2023/10/10 03:20:49;;;;;;;;;;;10.60;99.90;;;9.64;100.00;98158.34;5001031;28;19925;-70
2023/10/10 03:33:44;;;;;;;;;;;10.20;99.90;;;9.08;100.00;98159.09;5002891;28;19933;-71
2023/10/10 05:23:34;;;;;;;;;;;9.80;99.90;;;8.58;100.00;98148.31;5003884;28;20542;-72
2023/10/10 05:26:05;;;;;;;;;;;9.70;99.90;;;8.64;100.00;98139.53;5013100;28;19953;-72
2023/10/10 05:28:40;;;;;;;;;;;9.70;99.90;;;8.77;100.00;98134.00;5002132;28;19936;-72
2023/10/10 05:31:09;;;;;;;;;;;9.70;99.90;;;8.68;100.00;98134.25;5004569;28;19929;-72
2023/10/10 05:33:37;;;;;;;;;;;9.70;99.90;;;8.70;100.00;98140.22;5003246;28;19976;-72
2023/10/10 05:36:06;;;;;;;;;;;9.70;99.90;;;8.54;100.00;98147.53;5007721;28;19926;-71
2023/10/10 05:38:39;;;;;;;;;;;9.60;99.90;;;8.55;100.00;98145.78;5006618;28;19925;-72
2023/10/10 05:41:07;;;;;;;;;;;9.50;99.90;;;8.50;100.00;98148.50;5004375;28;19930;-71
2023/10/10 05:43:34;;;;;;;;;;;9.40;99.90;;;8.51;100.00;98151.97;5004115;28;19936;-72
2023/10/10 05:46:03;;;;;;;;;;;9.50;99.90;;;8.41;100.00;98151.31;5003221;28;20031;-71
2023/10/10 05:48:35;;;;;;;;;;;9.40;99.90;;;8.32;100.00;98147.19;5010381;28;19932;-72
2023/10/10 05:51:08;;;;;;;;;;;9.40;99.90;;;8.43;100.00;98146.13;5000119;28;19936;-70
2023/10/10 05:53:36;;;;;;;;;;;9.30;99.90;;;8.45;100.00;98145.19;5007052;28;20048;-72
2023/10/10 05:56:12;;;;;;;;;;;9.20;99.90;;;8.43;100.00;98144.38;4999222;28;20305;-71
2023/10/10 05:58:42;;;;;;;;;;;9.20;99.90;;;8.48;100.00;98144.25;5004993;28;20016;-72
2023/10/10 06:01:13;;;;;;;;;;;9.20;99.90;;;8.31;100.00;98147.25;5003968;28;19988;-71
2023/10/10 06:03:41;;;;;;;;;;;9.20;99.90;;;8.42;100.00;98150.44;5001749;28;19929;-70
2023/10/10 06:06:18;;;;;;;;;;;9.10;99.90;;;8.46;100.00;98152.06;5001913;28;19976;-72
2023/10/10 06:08:45;;;;;;;;;;;9.10;99.90;;;8.44;100.00;98147.78;5003458;28;20301;-72
2023/10/10 06:11:19;;;;;;;;;;;9.20;99.90;;;8.42;100.00;98153.03;5003315;28;19937;-72
2023/10/10 06:13:46;;;;;;;;;;;9.20;99.90;;;8.60;100.00;98151.72;5004545;28;19930;-70
2023/10/10 06:16:14;;;;;;;;;;;9.20;99.90;;;8.71;100.00;98160.06;5016722;28;20500;-72
2023/10/10 06:18:44;;;;;;;;;;;9.30;99.90;;;8.77;100.00;98167.66;5009787;28;19925;-72
2023/10/10 06:21:14;;;;;;;;;;;9.40;99.90;;;9.02;100.00;98167.00;5000479;28;19937;-72
2023/10/10 06:23:43;;;;;;;;;;;9.60;99.90;;;9.15;100.00;98168.38;5004694;28;20035;-71
2023/10/10 06:26:14;;;;;;;;;;;9.80;99.90;;;9.29;100.00;98167.16;5004776;28;19976;-72
2023/10/10 06:28:48;;;;;;;;;;;9.90;99.90;;;9.30;100.00;98176.63;5003810;28;19929;-71
2023/10/10 06:31:19;;;;;;;;;;;10.00;99.90;;;9.15;100.00;98176.16;5001910;28;20476;-72
2023/10/10 06:33:50;;;;;;;;;;;10.00;99.90;;;8.95;100.00;98179.25;5003429;28;19930;-71
2023/10/10 06:39:18;;;;;;;;;;;9.80;99.90;;;9.11;100.00;98184.03;5002381;28;19969;-72
2023/10/10 06:41:47;;;;;;;;;;;9.80;99.90;;;9.27;100.00;98187.06;5010957;28;19930;-72
2023/10/10 06:44:15;;;;;;;;;;;9.90;99.90;;;9.35;100.00;98185.09;5018212;28;19936;-72
2023/10/10 06:46:46;;;;;;;;;;;10.00;99.90;;;9.34;100.00;98180.81;5002539;28;19929;-72
2023/10/10 06:49:14;;;;;;;;;;;9.90;99.90;;;9.32;100.00;98173.06;5005483;28;19980;-71
2023/10/10 06:51:41;;;;;;;;;;;10.00;99.90;;;9.42;100.00;98173.69;5015020;28;19952;-71
2023/10/10 06:54:27;;;;;;;;;;;10.00;99.90;;;9.48;100.00;98172.66;5000294;28;20095;-71
2023/10/10 06:59:28;;;;;;;;;;;10.00;99.90;;;9.69;100.00;98176.38;5005880;28;19933;-71
2023/10/10 07:02:13;;;;;;;;;;;10.20;99.90;;;9.88;100.00;98182.72;5001005;28;20496;-72
2023/10/10 07:04:41;;;;;;;;;;;10.30;99.90;;;10.00;100.00;98189.25;5004361;28;19931;-71
2023/10/10 07:07:10;;;;;;;;;;;10.40;99.90;;;10.38;100.00;98187.25;5002135;28;19940;-71
2023/10/10 07:09:42;;;;;;;;;;;10.60;99.90;;;10.68;100.00;98183.66;5005428;28;20097;-71
2023/10/10 07:12:09;;;;;;;;;;;10.90;99.90;;;10.79;100.00;98188.50;5015777;28;20417;-71
2023/10/10 07:14:44;;;;;;;;;;;11.10;99.90;;;11.21;100.00;98181.88;5004178;28;20362;-71
2023/10/10 07:17:12;;;;;;;;;;;11.40;99.90;;;11.30;100.00;98191.94;5006011;28;19930;-71
2023/10/10 07:22:44;;;;;;;;;;;11.70;99.90;;;11.29;100.00;98193.69;4986016;28;20452;-72
2023/10/10 07:25:24;;;;;;;;;;;11.80;99.90;;;11.61;100.00;98185.59;4998285;28;20465;-72
2023/10/10 07:27:52;;;;;;;;;;;12.00;99.90;;;11.92;100.00;98193.97;5000963;28;19930;-72
2023/10/10 07:30:18;;;;;;;;;;;12.30;99.90;;;12.45;100.00;98191.94;5001181;28;19934;-72
2023/10/10 07:32:50;;;;;;;;;;;12.70;99.90;;;12.44;100.00;98188.50;5003154;28;20067;-72
2023/10/10 07:35:25;;;;;;;;;;;13.10;99.90;;;12.95;100.00;98191.59;5002717;28;19929;-71
2023/10/10 07:37:52;;;;;;;;;;;13.40;99.90;;;13.08;100.00;98184.13;5001229;28;19929;-72
2023/10/10 07:40:20;;;;;;;;;;;13.60;99.90;;;13.35;100.00;98187.31;5004489;28;19934;-71
2023/10/10 07:43:03;;;;;;;;;;;13.80;99.90;;;13.70;100.00;98187.50;5002243;28;19988;-72
2023/10/10 07:45:33;;;;;;;;;;;13.80;99.90;;;14.19;100.00;98177.41;5001551;28;19936;-71
2023/10/10 07:50:35;;;;;;;;;;;14.30;99.90;;;14.06;100.00;98177.13;5001715;28;19936;-71
2023/10/10 07:53:05;;;;;;;;;;;14.50;99.90;;;13.91;100.00;98175.22;5003371;28;19929;-71
2023/10/10 07:55:52;;;;;;;;;;;14.60;99.90;;;14.41;100.00;98174.59;5001833;28;19936;-71
2023/10/10 07:58:27;;;;;;;;;;;14.70;99.90;;;14.46;100.00;98175.22;5006315;28;19948;-72
2023/10/10 08:01:17;;;;;;;;;;;14.50;99.90;;;14.12;100.00;98176.00;5004369;28;19929;-72
2023/10/10 08:03:46;;;;;;;;;;;14.40;99.90;;;14.21;100.00;98181.63;4999800;28;20376;-73
2023/10/10 08:06:18;;;;;;;;;;;14.30;99.90;;;13.86;100.00;98178.06;5004217;28;19930;-72
2023/10/10 08:08:49;;;;;;;;;;;14.30;99.90;;;14.54;100.00;98180.94;5000362;28;19930;-72
2023/10/10 08:11:27;;;;;;;;;;;14.50;99.90;;;14.86;100.00;98173.28;4991215;28;19930;-72
2023/10/10 08:13:55;;;;;;;;;;;14.70;99.90;;;15.27;100.00;98175.53;5003798;28;19964;-72
2023/10/10 08:16:29;;;;;;;;;;;15.00;99.90;;;15.56;100.00;98160.94;5003673;28;19980;-72
2023/10/10 08:19:04;;;;;;;;;;;15.10;99.90;;;15.65;100.00;98162.22;5011977;28;20314;-72
2023/10/10 08:21:38;;;;;;;;;;;15.40;99.90;;;15.61;100.00;98169.38;5003459;28;19933;-71
2023/10/10 08:24:07;;;;;;;;;;;15.70;99.90;;;15.72;100.00;98171.44;5003401;28;19929;-72
2023/10/10 08:26:40;;;;;;;;;;;15.80;99.90;;;15.25;100.00;98182.63;5004926;28;20055;-72
2023/10/10 08:29:08;;;;;;;;;;;15.90;99.90;;;15.58;100.00;98168.72;5004755;28;19933;-72
2023/10/10 08:31:37;;;;;;;;;;;16.10;99.90;;;16.25;100.00;98174.66;5002439;28;19988;-72
2023/10/10 08:34:09;;;;;;;;;;;16.40;99.90;;;16.34;100.00;98181.16;5003054;28;19929;-72
2023/10/10 08:36:37;;;;;;;;;;;16.60;99.90;;;16.48;100.00;98176.81;5001759;28;19934;-72
2023/10/10 08:39:49;;;;;;;;;;;16.90;99.90;;;16.61;100.00;98174.34;4999454;28;19926;-72
2023/10/10 08:41:55;;;;;;;;;;;17.10;99.90;;;16.51;100.00;98178.41;4988144;28;20379;-72
2023/10/10 08:44:23;;;;;;;;;;;17.10;99.90;;;16.64;100.00;98174.16;5002069;28;19965;-72
2023/10/10 08:46:54;;;;;;;;;;;17.30;99.90;;;16.37;100.00;98186.22;5011528;28;19929;-72
2023/10/10 08:49:22;;;;;;;;;;;17.40;99.90;;;16.81;100.00;98178.47;5001405;28;19999;-72
2023/10/10 08:51:49;;;;;;;;;;;17.30;99.90;;;16.50;100.00;98174.94;4999563;28;19937;-72
2023/10/10 08:54:17;;;;;;;;;;;17.50;99.90;;;16.78;100.00;98177.75;5002104;28;20019;-72
2023/10/10 08:57:03;;;;;;;;;;;17.50;99.90;;;16.53;100.00;98181.78;4988660;28;19937;-70
2023/10/10 08:59:31;;;;;;;;;;;17.60;99.90;;;16.51;100.00;98187.13;5000540;28;20528;-71
2023/10/10 09:02:05;;;;;;;;;;;17.60;99.90;;;16.69;100.00;98181.75;5019119;28;20413;-72
2023/10/10 09:04:32;;;;;;;;;;;17.60;99.90;;;16.75;100.00;98191.91;5006745;28;19983;-72
2023/10/10 09:07:00;;;;;;;;;;;17.50;99.90;;;17.04;100.00;98192.84;5005100;28;19940;-72
2023/10/10 09:09:33;;;;;;;;;;;17.30;99.90;;;17.16;100.00;98191.28;5020901;28;19982;-72
2023/10/10 09:12:03;;;;;;;;;;;17.40;99.90;;;17.13;100.00;98197.56;5004021;28;19980;-72
2023/10/10 09:14:49;;;;;;;;;;;17.40;99.90;;;17.08;100.00;98199.63;5004840;28;19937;-71
2023/10/10 09:17:28;;;;;;;;;;;17.20;99.90;;;16.73;100.00;98194.59;5019311;28;19969;-72
2023/10/10 09:20:08;;;;;;;;;;;17.20;99.90;;;16.73;100.00;98191.97;4999902;28;20012;-72
2023/10/10 09:22:43;;;;;;;;;;;17.20;99.90;;;17.02;100.00;98188.63;5004784;28;19929;-72
2023/10/10 09:25:26;;;;;;;;;;;17.30;99.90;;;16.86;100.00;98200.00;5008841;28;20715;-72
2023/10/10 09:28:04;;;;;;;;;;;17.30;99.90;;;17.24;100.00;98191.66;5008947;28;19940;-71
2023/10/10 09:30:40;;;;;;;;;;;17.40;99.90;;;17.42;100.00;98200.19;5005279;28;19937;-72
2023/10/10 09:33:13;;;;;;;;;;;17.60;99.90;;;17.56;100.00;98199.34;5013928;28;20453;-72
2023/10/10 09:35:40;;;;;;;;;;;17.70;99.90;;;17.56;100.00;98204.59;5006276;28;19952;-72
2023/10/10 09:38:15;;;;;;;;;;;17.80;99.90;;;17.71;100.00;98208.91;5005537;28;19934;-71
2023/10/10 09:40:43;;;;;;;;;;;17.80;99.90;;;17.72;100.00;98200.13;5008199;28;20020;-71
2023/10/10 09:43:23;;;;;;;;;;;17.80;99.90;;;17.80;100.00;98198.81;5005478;28;19929;-72
2023/10/10 09:46:10;;;;;;;;;;;17.80;99.90;;;17.98;100.00;98197.69;5006700;28;21769;-72
2023/10/10 09:51:30;;;;;;;;;;;18.20;99.90;;;18.07;100.00;98197.09;5007356;28;20023;-72
2023/10/10 09:54:16;;;;;;;;;;;18.20;99.90;;;17.94;100.00;98199.63;5006588;28;20372;-71
2023/10/10 09:56:48;;;;;;;;;;;18.40;99.90;;;17.81;100.00;98189.97;5008552;28;19929;-72
2023/10/10 09:59:16;;;;;;;;;;;18.30;99.90;;;17.88;100.00;98200.03;5023563;28;19929;-71
2023/10/10 10:01:46;;;;;;;;;;;18.30;99.90;;;18.08;100.00;98200.56;5006617;28;19936;-72
2023/10/10 10:04:19;;;;;;;;;;;18.40;99.90;;;17.97;100.00;98199.47;5004632;28;20048;-71
2023/10/10 10:06:59;;;;;;;;;;;18.50;99.90;;;18.45;100.00;98193.81;5002537;28;19933;-71
2023/10/10 10:10:00;;;;;;;;;;;18.50;99.90;;;18.27;100.00;98193.22;5002122;28;19934;-71
2023/10/10 10:12:30;;;;;;;;;;;18.50;99.90;;;18.30;100.00;98184.28;5002801;28;19929;-71
2023/10/10 10:15:20;;;;;;;;;;;18.60;99.90;;;18.49;100.00;98192.66;5006502;28;20023;-71
2023/10/10 10:18:11;;;;;;;;;;;18.60;99.90;;;18.44;100.00;98200.00;5019609;28;19929;-70
2023/10/10 10:23:28;;;;;;;;;;;18.70;99.90;;;18.26;100.00;98202.03;5003733;28;20036;-72
2023/10/10 10:26:10;;;;;;;;;;;18.80;99.90;;;18.41;100.00;98202.84;5003221;28;20587;-70
2023/10/10 10:28:41;;;;;;;;;;;18.80;99.90;;;18.53;100.00;98202.03;5011204;28;19929;-70
2023/10/10 10:31:28;;;;;;;;;;;18.80;99.90;;;18.75;100.00;98205.91;5002660;28;21490;-71
2023/10/10 10:34:07;;;;;;;;;;;18.90;99.90;;;18.79;100.00;98208.25;5005267;28;20290;-71
2023/10/10 10:36:45;;;;;;;;;;;18.90;99.90;;;18.66;100.00;98202.06;5008567;28;19926;-73
2023/10/10 10:39:21;;;;;;;;;;;18.90;99.90;;;18.58;100.00;98202.56;5005124;28;20007;-72
2023/10/10 10:41:53;;;;;;;;;;;18.90;99.90;;;18.74;100.00;98199.78;4998900;28;19949;-70
2023/10/10 10:44:58;;;;;;;;;;;19.20;99.90;;;18.80;100.00;98199.41;5002120;28;19988;-71
2023/10/10 10:47:35;;;;;;;;;;;19.30;99.90;;;19.06;100.00;98194.19;5007740;28;19996;-73
2023/10/10 10:50:18;;;;;;;;;;;19.30;99.90;;;19.10;100.00;98195.66;5008336;28;19973;-73
2023/10/10 10:52:56;;;;;;;;;;;19.30;99.90;;;19.34;100.00;98194.94;5017670;28;20477;-73
2023/10/10 10:55:27;;;;;;;;;;;19.30;99.90;;;19.17;100.00;98201.38;5008925;28;19943;-72
2023/10/10 10:58:20;;;;;;;;;;;19.40;99.90;;;19.13;100.00;98189.34;5006882;28;19930;-72
2023/10/10 11:03:36;;;;;;;;;;;19.40;99.90;;;19.27;100.00;98204.19;5005014;28;19957;-73
2023/10/10 11:06:08;;;;;;;;;;;19.40;99.90;;;19.28;100.00;98196.22;5007103;28;19949;-71
2023/10/10 11:08:51;;;;;;;;;;;19.60;99.90;;;19.29;100.00;98194.41;5016192;28;19926;-73
2023/10/10 11:11:36;;;;;;;;;;;19.40;99.90;;;19.08;100.00;98197.56;5020219;28;19930;-73
2023/10/10 11:16:46;;;;;;;;;;;19.50;99.90;;;19.49;100.00;98177.25;5001983;28;19960;-70
2023/10/10 11:21:49;;;;;;;;;;;19.60;99.90;;;19.43;100.00;98174.13;5017183;28;19933;-71
2023/10/10 11:24:23;;;;;;;;;;;19.80;99.90;;;19.38;100.00;98173.56;5003361;28;19936;-71
2023/10/10 11:29:44;;;;;;;;;;;20.00;99.90;;;19.30;100.00;98165.38;5006147;28;19929;-71
2023/10/10 11:33:16;;;;;;;;;;;19.90;99.90;;;19.49;100.00;98178.09;5003357;28;19930;-72
2023/10/10 11:37:47;;;;;;;;;;;19.80;99.90;;;19.75;100.00;98160.50;5001685;28;19987;-71
2023/10/10 11:42:55;;;;;;;;;;;19.80;99.90;;;19.40;100.00;98165.56;4996936;28;19984;-71
2023/10/10 11:45:26;;;;;;;;;;;19.90;99.90;;;19.67;100.00;98161.97;5001657;28;19934;-71
2023/10/10 11:48:00;;;;;;;;;;;19.90;99.90;;;19.72;100.00;98159.88;5001597;28;19961;-72
2023/10/10 11:50:48;;;;;;;;;;;20.00;99.90;;;19.95;100.00;98159.06;5013261;28;19936;-71
2023/10/10 11:53:19;;;;;;;;;;;20.10;99.90;;;19.80;100.00;98153.13;5002031;28;19929;-70
2023/10/10 11:55:47;;;;;;;;;;;20.10;99.90;;;20.04;100.00;98154.94;5016507;28;19930;-72
2023/10/10 11:58:17;;;;;;;;;;;20.20;99.90;;;20.16;100.00;98154.06;4997322;28;19991;-72
2023/10/10 12:00:45;;;;;;;;;;;20.30;99.90;;;20.35;100.00;98158.00;4997656;28;19937;-72
2023/10/10 12:03:14;;;;;;;;;;;20.40;99.90;;;20.27;100.00;98148.00;5013513;28;19937;-72
2023/10/10 12:05:48;;;;;;;;;;;20.50;99.90;;;20.33;100.00;98144.91;5002245;28;20379;-73
2023/10/10 12:08:22;;;;;;;;;;;20.60;99.90;;;20.39;100.00;98146.25;4999905;28;19937;-72
2023/10/10 12:11:11;;;;;;;;;;;20.60;99.90;;;20.56;100.00;98137.97;5001360;28;19926;-73
2023/10/10 12:13:38;;;;;;;;;;;20.70;99.90;;;20.65;100.00;98137.28;5000952;28;20698;-72
2023/10/10 12:16:12;;;;;;;;;;;20.70;99.90;;;20.67;100.00;98145.09;4998047;28;20024;-71
2023/10/10 12:18:52;;;;;;;;;;;20.70;99.90;;;20.43;100.00;98137.16;4999833;28;19938;-72
2023/10/10 12:21:20;;;;;;;;;;;20.70;99.90;;;20.67;100.00;98139.81;5001716;28;20382;-75
2023/10/10 12:23:55;;;;;;;;;;;20.70;99.90;;;20.76;100.00;98133.84;5015112;28;19926;-73
2023/10/10 12:26:27;;;;;;;;;;;20.80;99.90;;;21.03;100.00;98136.19;5001654;28;19987;-72
2023/10/10 12:28:54;;;;;;;;;;;21.00;99.90;;;21.43;100.00;98127.00;4997903;28;19973;-73
2023/10/10 12:31:22;;;;;;;;;;;21.10;99.90;;;21.33;100.00;98132.16;5002989;28;20039;-73
2023/10/10 12:33:49;;;;;;;;;;;21.40;99.90;;;21.49;100.00;98129.19;5003105;28;19936;-73
2023/10/10 12:36:17;;;;;;;;;;;21.40;99.90;;;21.47;100.00;98120.53;5006950;28;19929;-72
2023/10/10 12:38:44;;;;;;;;;;;21.60;99.90;;;21.62;100.00;98121.13;5005402;28;19926;-73
2023/10/10 12:41:12;;;;;;;;;;;21.80;99.90;;;21.82;100.00;98122.19;5007805;28;19959;-72
2023/10/10 12:43:40;;;;;;;;;;;21.70;99.90;;;21.41;100.00;98107.81;5007699;28;19943;-72
2023/10/10 12:46:07;;;;;;;;;;;21.70;99.90;;;21.76;100.00;98114.72;5001844;28;19933;-72
2023/10/10 12:48:39;;;;;;;;;;;21.60;99.90;;;21.82;100.00;98107.16;5007005;28;19930;-72
2023/10/10 12:51:10;;;;;;;;;;;21.80;99.90;;;22.13;100.00;98108.16;5005323;28;20505;-74
2023/10/10 12:53:42;;;;;;;;;;;21.90;99.90;;;21.83;100.00;98121.22;5004092;28;19941;-73
2023/10/10 12:56:20;;;;;;;;;;;22.00;99.90;;;22.20;100.00;98102.38;5002034;28;19930;-73
2023/10/10 12:58:57;;;;;;;;;;;22.00;99.90;;;22.14;100.00;98106.34;5004324;28;19972;-73
2023/10/10 13:01:35;;;;;;;;;;;22.00;99.90;;;22.47;100.00;98097.50;5001649;28;19929;-73
2023/10/10 13:04:07;;;;;;;;;;;22.20;99.90;;;22.92;100.00;98094.59;4998845;28;19934;-72
2023/10/10 13:06:39;;;;;;;;;;;22.60;99.90;;;24.42;100.00;98091.16;5001230;28;20461;-73
2023/10/10 13:09:08;;;;;;;;;;;22.90;99.90;;;25.38;100.00;98075.19;5001883;28;19968;-73
2023/10/10 13:11:43;;;;;;;;;;;23.70;99.90;;;25.77;100.00;98060.88;5007188;28;20348;-72
2023/10/10 13:14:19;;;;;;;;;;;23.80;99.90;;;25.47;100.00;98068.16;5001322;28;19930;-74
2023/10/10 13:19:20;;;;;;;;;;;24.50;99.90;;;26.55;100.00;98055.84;5001398;28;20385;-73
2023/10/10 13:21:48;;;;;;;;;;;25.10;99.90;;;25.99;100.00;98055.16;5003726;28;19930;-74
2023/10/10 13:24:15;;;;;;;;;;;25.30;99.90;;;25.16;100.00;98060.47;5004017;28;20394;-73
2023/10/10 13:26:45;;;;;;;;;;;24.60;99.90;;;25.31;100.00;98057.34;5001814;28;20029;-73
2023/10/10 13:29:15;;;;;;;;;;;24.80;99.90;;;25.87;100.00;98054.53;5000379;28;19940;-73
2023/10/10 13:31:47;;;;;;;;;;;24.80;99.90;;;25.92;100.00;98050.59;5004214;28;20044;-73
2023/10/10 13:34:16;;;;;;;;;;;24.80;99.90;;;25.67;100.00;98050.31;4998883;28;19930;-74
2023/10/10 13:36:44;;;;;;;;;;;24.90;99.90;;;27.07;100.00;98036.34;5006524;28;19933;-72
2023/10/10 13:39:15;;;;;;;;;;;24.80;99.90;;;26.53;100.00;98049.00;5001057;28;20033;-72
2023/10/10 13:41:46;;;;;;;;;;;25.20;99.90;;;26.97;100.00;98046.31;5001386;28;19929;-72
2023/10/10 13:44:18;;;;;;;;;;;;;;;27.42;100.00;98038.06;4997138;28;19929;-73
2023/10/10 13:46:47;;;;;;;;;;;26.30;99.90;;;27.59;100.00;98033.59;5002619;28;19933;-72
2023/10/10 13:49:14;;;;;;;;;;;26.10;99.80;;;28.21;100.00;98029.75;5001137;28;19930;-73
2023/10/10 13:51:41;;;;;;;;;;;26.30;99.90;;;27.94;100.00;98032.56;5001791;28;20423;-72
2023/10/10 13:54:08;;;;;;;;;;;25.60;98.90;;;27.41;100.00;98036.38;5014022;28;19929;-72
2023/10/10 13:56:35;;;;;;;;;;;25.60;99.90;;;27.39;100.00;98037.53;5005356;28;19930;-69
2023/10/10 13:59:02;;;;;;;;;;;25.90;99.90;;;26.91;100.00;98039.75;4997546;28;19930;-69
2023/10/10 14:01:29;;;;;;;;;;;26.10;99.70;;;27.73;100.00;98030.34;5000832;28;19933;-69
2023/10/10 14:04:04;;;;;;;;;;;26.10;98.70;;;26.83;100.00;98031.75;5012088;28;20232;-69
2023/10/10 14:06:45;;;;;;;;;;;26.30;98.70;;;27.98;100.00;98029.56;5000466;28;19945;-69
2023/10/10 14:09:21;;;;;;;;;;;26.00;98.30;;;27.74;100.00;98020.50;5000157;28;19933;-69
2023/10/10 14:12:01;;;;;;;;;;;26.20;98.90;;;28.01;100.00;98013.22;5003414;28;20025;-69
2023/10/10 14:14:29;;;;;;;;;;;26.30;98.80;;;27.67;100.00;98022.97;5001798;28;20357;-69
2023/10/10 14:16:56;;;;;;;;;;;26.50;98.30;;;27.39;100.00;98024.22;5002597;28;19929;-69
2023/10/10 14:19:24;;;;;;;;;;;26.90;97.90;;;28.12;100.00;98023.56;5002181;28;20410;-69
2023/10/10 14:21:57;;;;;;;;;;;27.10;97.80;;;28.13;100.00;98025.25;5001214;28;19936;-69
2023/10/10 14:24:24;;;;;;;;;;;26.70;98.10;;;27.23;100.00;98035.63;5003107;28;19952;-68
2023/10/10 14:26:51;;;;;;;;;;;26.00;98.10;;;26.66;100.00;98031.66;5001332;28;19991;-68
2023/10/10 14:29:19;;;;;;;;;;;25.40;98.70;;;27.10;100.00;98025.41;5002762;28;19941;-69
2023/10/10 14:31:46;;;;;;;;;;;25.70;98.70;;;27.02;100.00;98030.69;5000633;28;19987;-68
2023/10/10 14:34:24;;;;;;;;;;;25.40;98.60;;;27.27;100.00;98021.00;4999853;28;20373;-68
2023/10/10 14:36:53;;;;;;;;;;;25.50;98.90;;;26.36;100.00;98032.88;5003992;28;20294;-69